createdAt,value
2016-05-06T00:00:11.195Z,1012.4
2016-05-06T00:00:54.025Z,1012.39
2016-05-06T00:01:37.011Z,1012.39
2016-05-06T00:02:19.984Z,1012.36
2016-05-06T00:03:02.937Z,1012.38
2016-05-06T00:03:45.753Z,1012.35
2016-05-06T00:04:28.567Z,1012.35
2016-05-06T00:05:11.536Z,1012.34
2016-05-06T00:05:54.507Z,1012.37
2016-05-06T00:06:37.182Z,1012.36
2016-05-06T00:07:20.137Z,1012.39
2016-05-06T00:08:02.949Z,1012.39
2016-05-06T00:08:45.938Z,1012.38
2016-05-06T00:09:28.815Z,1012.35
2016-05-06T00:10:12.065Z,1012.38
2016-05-06T00:10:54.755Z,1012.41
2016-05-06T00:11:37.851Z,1012.39
2016-05-06T00:12:21.855Z,1012.39
2016-05-06T00:13:04.699Z,1012.38
2016-05-06T00:13:47.513Z,1012.39
2016-05-06T00:14:30.485Z,1012.34
2016-05-06T00:15:13.469Z,1012.41
2016-05-06T00:15:56.440Z,1012.43
2016-05-06T00:16:39.412Z,1012.43
2016-05-06T00:17:22.382Z,1012.41
2016-05-06T00:18:05.336Z,1012.39
2016-05-06T00:18:48.168Z,1012.43
2016-05-06T00:19:30.982Z,1012.4
2016-05-06T00:20:13.951Z,1012.41
2016-05-06T00:20:56.977Z,1012.39
2016-05-06T00:21:39.810Z,1012.42
2016-05-06T00:22:22.624Z,1012.38
2016-05-06T00:23:05.343Z,1012.42
2016-05-06T00:23:48.252Z,1012.36
2016-05-06T00:24:31.363Z,1012.35
2016-05-06T00:25:14.192Z,1012.35
2016-05-06T00:25:58.851Z,1012.37
2016-05-06T00:26:41.729Z,1012.36
2016-05-06T00:27:24.716Z,1012.33
2016-05-06T00:28:07.763Z,1012.32
2016-05-06T00:28:50.812Z,1012.34
2016-05-06T00:29:34.002Z,1012.29
2016-05-06T00:30:16.987Z,1012.32
2016-05-06T00:30:59.818Z,1012.32
2016-05-06T00:31:42.789Z,1012.31
2016-05-06T00:32:25.760Z,1012.31
2016-05-06T00:33:08.792Z,1012.31
2016-05-06T00:33:51.951Z,1012.28
2016-05-06T00:34:34.906Z,1012.31
2016-05-06T00:35:17.578Z,1012.3
2016-05-06T00:36:02.254Z,1012.29
2016-05-06T00:36:45.225Z,1012.32
2016-05-06T00:37:28.352Z,1012.29
2016-05-06T00:38:11.336Z,1012.29
2016-05-06T00:38:54.464Z,1012.24
2016-05-06T00:39:37.483Z,1012.28
2016-05-06T00:40:20.547Z,1012.26
2016-05-06T00:41:04.485Z,1012.27
2016-05-06T00:41:47.441Z,1012.26
2016-05-06T00:42:30.584Z,1012.26
2016-05-06T00:43:13.553Z,1012.31
2016-05-06T00:43:56.290Z,1012.26
2016-05-06T00:44:38.996Z,1012.28
2016-05-06T00:45:21.811Z,1012.22
2016-05-06T00:46:04.827Z,1012.24
2016-05-06T00:46:47.954Z,1012.24
2016-05-06T00:47:30.832Z,1012.22
2016-05-06T00:48:13.644Z,1012.21
2016-05-06T00:48:56.788Z,1012.19
2016-05-06T00:49:39.666Z,1012.16
2016-05-06T00:50:22.480Z,1012.17
2016-05-06T00:51:05.449Z,1012.17
2016-05-06T00:51:48.108Z,1012.16
2016-05-06T00:52:31.049Z,1012.14
2016-05-06T00:53:13.846Z,1012.18
2016-05-06T00:53:56.677Z,1012.14
2016-05-06T00:54:39.663Z,1012.15
2016-05-06T00:55:22.494Z,1012.14
2016-05-06T00:56:05.885Z,1012.11
2016-05-06T00:56:48.716Z,1012.11
2016-05-06T00:57:31.702Z,1012.09
2016-05-06T00:58:14.671Z,1012.13
2016-05-06T00:58:57.346Z,1012.1
2016-05-06T00:59:40.317Z,1012.11
2016-05-06T01:00:23.336Z,1012.09
2016-05-06T01:01:06.165Z,1012.06
2016-05-06T01:01:49.120Z,1012.09
2016-05-06T01:02:32.091Z,1012.08
2016-05-06T01:03:15.076Z,1012.12
2016-05-06T01:03:57.890Z,1012.12
2016-05-06T01:04:40.862Z,1012.07
2016-05-06T01:05:23.849Z,1012.05
2016-05-06T01:06:06.646Z,1012.06
2016-05-06T01:06:49.618Z,1012.08
2016-05-06T01:07:32.433Z,1012.06
2016-05-06T01:08:15.386Z,1012.06
2016-05-06T01:08:58.248Z,1012.03
2016-05-06T01:09:41.079Z,1012.01
2016-05-06T01:10:24.097Z,1012.03
2016-05-06T01:11:06.941Z,1012.03
2016-05-06T01:11:49.928Z,1012.02
2016-05-06T01:12:32.899Z,1012.02
2016-05-06T01:13:15.867Z,1012.02
2016-05-06T01:13:58.871Z,1012.01
2016-05-06T01:14:41.702Z,1012.01
2016-05-06T01:15:24.673Z,1012.02
2016-05-06T01:16:07.658Z,1012.01
2016-05-06T01:16:50.613Z,1012
2016-05-06T01:17:33.413Z,1011.98
2016-05-06T01:18:16.241Z,1012.03
2016-05-06T01:18:59.056Z,1012
2016-05-06T01:19:41.872Z,1012.01
2016-05-06T01:20:24.858Z,1012.02
2016-05-06T01:21:07.858Z,1011.99
2016-05-06T01:21:50.829Z,1012.04
2016-05-06T01:22:33.802Z,1012.03
2016-05-06T01:23:16.786Z,1012.05
2016-05-06T01:23:59.741Z,1012.05
2016-05-06T01:24:42.744Z,1012.02
2016-05-06T01:25:25.715Z,1012.03
2016-05-06T01:26:08.902Z,1011.99
2016-05-06T01:26:51.578Z,1012.01
2016-05-06T01:27:34.549Z,1012.03
2016-05-06T01:28:17.533Z,1012.01
2016-05-06T01:29:00.505Z,1012.02
2016-05-06T01:29:43.476Z,1012.03
2016-05-06T01:30:26.291Z,1012.03
2016-05-06T01:31:09.276Z,1012.01
2016-05-06T01:31:52.091Z,1012.02
2016-05-06T01:32:35.062Z,1012.02
2016-05-06T01:33:17.890Z,1012.02
2016-05-06T01:34:00.878Z,1012.01
2016-05-06T01:34:43.692Z,1012.02
2016-05-06T01:35:26.680Z,1012.02
2016-05-06T01:36:09.649Z,1011.97
2016-05-06T01:36:52.448Z,1011.99
2016-05-06T01:37:35.434Z,1011.96
2016-05-06T01:38:18.434Z,1011.97
2016-05-06T01:39:01.391Z,1011.94
2016-05-06T01:39:44.379Z,1011.95
2016-05-06T01:40:27.365Z,1011.97
2016-05-06T01:41:09.803Z,1011.95
2016-05-06T01:41:52.789Z,1011.95
2016-05-06T01:42:35.449Z,1011.98
2016-05-06T01:43:18.434Z,1011.95
2016-05-06T01:44:01.420Z,1011.94
2016-05-06T01:44:44.408Z,1011.95
2016-05-06T01:45:27.394Z,1011.97
2016-05-06T01:46:10.363Z,1011.95
2016-05-06T01:46:53.178Z,1011.93
2016-05-06T01:47:36.181Z,1011.94
2016-05-06T01:48:18.697Z,1011.93
2016-05-06T01:49:01.669Z,1011.93
2016-05-06T01:49:44.514Z,1011.92
2016-05-06T01:50:27.501Z,1011.87
2016-05-06T01:51:10.157Z,1011.87
2016-05-06T01:51:52.833Z,1011.86
2016-05-06T01:52:35.508Z,1011.88
2016-05-06T01:53:18.476Z,1011.86
2016-05-06T01:54:01.447Z,1011.83
2016-05-06T01:54:44.105Z,1011.82
2016-05-06T01:55:27.109Z,1011.83
2016-05-06T01:56:09.969Z,1011.85
2016-05-06T01:56:52.799Z,1011.84
2016-05-06T01:57:35.771Z,1011.79
2016-05-06T01:58:18.739Z,1011.82
2016-05-06T01:59:01.726Z,1011.83
2016-05-06T01:59:44.713Z,1011.78
2016-05-06T02:00:27.685Z,1011.79
2016-05-06T02:01:10.529Z,1011.81
2016-05-06T02:01:53.187Z,1011.8
2016-05-06T02:02:36.159Z,1011.78
2016-05-06T02:03:18.987Z,1011.79
2016-05-06T02:04:01.958Z,1011.8
2016-05-06T02:04:44.946Z,1011.77
2016-05-06T02:05:27.917Z,1011.77
2016-05-06T02:06:10.885Z,1011.76
2016-05-06T02:06:53.857Z,1011.76
2016-05-06T02:07:36.859Z,1011.75
2016-05-06T02:08:19.344Z,1011.72
2016-05-06T02:09:02.331Z,1011.75
2016-05-06T02:09:45.146Z,1011.75
2016-05-06T02:10:28.117Z,1011.74
2016-05-06T02:11:11.133Z,1011.73
2016-05-06T02:11:53.980Z,1011.72
2016-05-06T02:12:36.951Z,1011.76
2016-05-06T02:13:19.920Z,1011.75
2016-05-06T02:14:02.907Z,1011.75
2016-05-06T02:14:45.894Z,1011.76
2016-05-06T02:15:28.866Z,1011.76
2016-05-06T02:16:11.850Z,1011.74
2016-05-06T02:16:54.837Z,1011.74
2016-05-06T02:17:37.793Z,1011.74
2016-05-06T02:18:20.622Z,1011.69
2016-05-06T02:19:03.577Z,1011.7
2016-05-06T02:19:46.423Z,1011.7
2016-05-06T02:20:29.411Z,1011.67
2016-05-06T02:21:12.364Z,1011.67
2016-05-06T02:21:55.335Z,1011.66
2016-05-06T02:22:38.150Z,1011.64
2016-05-06T02:23:21.166Z,1011.66
2016-05-06T02:24:04.140Z,1011.64
2016-05-06T02:24:47.128Z,1011.61
2016-05-06T02:25:30.256Z,1011.66
2016-05-06T02:26:12.990Z,1011.62
2016-05-06T02:26:55.978Z,1011.62
2016-05-06T02:27:38.933Z,1011.63
2016-05-06T02:28:21.730Z,1011.61
2016-05-06T02:29:04.561Z,1011.59
2016-05-06T02:29:47.375Z,1011.59
2016-05-06T02:30:30.020Z,1011.6
2016-05-06T02:31:12.989Z,1011.6
2016-05-06T02:31:55.803Z,1011.61
2016-05-06T02:32:38.774Z,1011.55
2016-05-06T02:33:21.446Z,1011.53
2016-05-06T02:34:04.417Z,1011.56
2016-05-06T02:34:47.389Z,1011.54
2016-05-06T02:35:30.205Z,1011.51
2016-05-06T02:36:13.189Z,1011.52
2016-05-06T02:36:56.144Z,1011.54
2016-05-06T02:37:38.976Z,1011.47
2016-05-06T02:38:21.945Z,1011.47
2016-05-06T02:39:04.760Z,1011.46
2016-05-06T02:39:47.731Z,1011.44
2016-05-06T02:40:30.702Z,1011.47
2016-05-06T02:41:13.952Z,1011.4
2016-05-06T02:41:56.954Z,1011.46
2016-05-06T02:42:39.754Z,1011.39
2016-05-06T02:43:22.727Z,1011.41
2016-05-06T02:44:05.555Z,1011.4
2016-05-06T02:44:48.510Z,1011.42
2016-05-06T02:45:31.481Z,1011.4
2016-05-06T02:46:14.449Z,1011.38
2016-05-06T02:46:57.422Z,1011.36
2016-05-06T02:47:39.924Z,1011.34
2016-05-06T02:48:22.739Z,1011.37
2016-05-06T02:49:05.567Z,1011.33
2016-05-06T02:49:48.523Z,1011.31
2016-05-06T02:50:31.496Z,1011.32
2016-05-06T02:51:14.308Z,1011.34
2016-05-06T02:51:56.951Z,1011.35
2016-05-06T02:52:39.922Z,1011.29
2016-05-06T02:53:22.738Z,1011.31
2016-05-06T02:54:05.566Z,1011.29
2016-05-06T02:54:48.380Z,1011.31
2016-05-06T02:55:31.212Z,1011.31
2016-05-06T02:56:14.524Z,1011.32
2016-05-06T02:56:57.370Z,1011.33
2016-05-06T02:57:40.342Z,1011.33
2016-05-06T02:58:23.157Z,1011.36
2016-05-06T02:59:05.985Z,1011.36
2016-05-06T02:59:48.817Z,1011.4
2016-05-06T03:00:31.787Z,1011.43
2016-05-06T03:01:14.756Z,1011.4
2016-05-06T03:01:57.727Z,1011.39
2016-05-06T03:02:40.700Z,1011.42
2016-05-06T03:03:23.561Z,1011.44
2016-05-06T03:04:06.530Z,1011.43
2016-05-06T03:04:49.501Z,1011.45
2016-05-06T03:05:32.488Z,1011.43
2016-05-06T03:06:15.472Z,1011.43
2016-05-06T03:06:58.444Z,1011.41
2016-05-06T03:07:41.119Z,1011.41
2016-05-06T03:08:24.090Z,1011.44
2016-05-06T03:09:07.058Z,1011.41
2016-05-06T03:09:49.874Z,1011.4
2016-05-06T03:10:32.705Z,1011.41
2016-05-06T03:11:15.736Z,1011.42
2016-05-06T03:11:58.552Z,1011.41
2016-05-06T03:12:41.538Z,1011.39
2016-05-06T03:13:24.510Z,1011.4
2016-05-06T03:14:07.479Z,1011.41
2016-05-06T03:14:50.152Z,1011.4
2016-05-06T03:15:33.141Z,1011.39
2016-05-06T03:16:16.094Z,1011.41
2016-05-06T03:16:58.768Z,1011.39
2016-05-06T03:17:41.740Z,1011.41
2016-05-06T03:18:24.398Z,1011.38
2016-05-06T03:19:07.367Z,1011.4
2016-05-06T03:19:50.354Z,1011.36
2016-05-06T03:20:33.185Z,1011.34
2016-05-06T03:21:16.138Z,1011.33
2016-05-06T03:21:58.968Z,1011.33
2016-05-06T03:22:41.784Z,1011.32
2016-05-06T03:23:24.756Z,1011.33
2016-05-06T03:24:07.740Z,1011.31
2016-05-06T03:24:50.587Z,1011.29
2016-05-06T03:25:33.245Z,1011.27
2016-05-06T03:26:17.104Z,1011.25
2016-05-06T03:27:00.185Z,1011.25
2016-05-06T03:27:43.001Z,1011.28
2016-05-06T03:28:25.862Z,1011.27
2016-05-06T03:29:08.831Z,1011.29
2016-05-06T03:29:51.647Z,1011.3
2016-05-06T03:30:34.603Z,1011.26
2016-05-06T03:31:17.603Z,1011.28
2016-05-06T03:32:00.573Z,1011.27
2016-05-06T03:32:43.405Z,1011.28
2016-05-06T03:33:26.204Z,1011.27
2016-05-06T03:34:09.173Z,1011.26
2016-05-06T03:34:51.988Z,1011.28
2016-05-06T03:35:34.975Z,1011.28
2016-05-06T03:36:17.647Z,1011.32
2016-05-06T03:37:00.619Z,1011.26
2016-05-06T03:37:43.434Z,1011.26
2016-05-06T03:38:26.405Z,1011.25
2016-05-06T03:39:09.233Z,1011.23
2016-05-06T03:39:52.049Z,1011.24
2016-05-06T03:40:35.020Z,1011.23
2016-05-06T03:41:19.155Z,1011.21
2016-05-06T03:42:02.031Z,1011.2
2016-05-06T03:42:44.846Z,1011.19
2016-05-06T03:43:27.821Z,1011.18
2016-05-06T03:44:10.992Z,1011.13
2016-05-06T03:44:54.338Z,1011.16
2016-05-06T03:45:37.325Z,1011.15
2016-05-06T03:46:20.294Z,1011.11
2016-05-06T03:47:03.266Z,1011.11
2016-05-06T03:47:46.113Z,1011.09
2016-05-06T03:48:29.083Z,1011.1
2016-05-06T03:49:12.083Z,1011.09
2016-05-06T03:49:55.055Z,1011.05
2016-05-06T03:50:37.870Z,1011.08
2016-05-06T03:51:20.854Z,1011.1
2016-05-06T03:52:03.685Z,1011.08
2016-05-06T03:52:46.485Z,1011.05
2016-05-06T03:53:29.299Z,1011.06
2016-05-06T03:54:12.128Z,1011.09
2016-05-06T03:54:54.960Z,1011.07
2016-05-06T03:55:37.930Z,1011.09
2016-05-06T03:56:21.149Z,1011.08
2016-05-06T03:57:03.980Z,1011.09
2016-05-06T03:57:46.951Z,1011.07
2016-05-06T03:58:32.017Z,1011.06
2016-05-06T03:59:14.985Z,1011.06
2016-05-06T03:59:57.957Z,1011.07
2016-05-06T04:00:40.773Z,1011.04
2016-05-06T04:01:23.601Z,1011.03
2016-05-06T04:02:06.556Z,1011.04
2016-05-06T04:02:49.589Z,1011.01
2016-05-06T04:03:32.577Z,1011
2016-05-06T04:04:15.531Z,1010.99
2016-05-06T04:04:58.501Z,1010.97
2016-05-06T04:05:41.175Z,1010.96
2016-05-06T04:06:24.144Z,1010.93
2016-05-06T04:07:07.132Z,1010.95
2016-05-06T04:07:49.948Z,1010.91
2016-05-06T04:08:32.606Z,1010.92
2016-05-06T04:09:15.575Z,1010.88
2016-05-06T04:09:58.546Z,1010.91
2016-05-06T04:10:41.362Z,1010.95
2016-05-06T04:11:24.785Z,1010.95
2016-05-06T04:12:07.457Z,1010.91
2016-05-06T04:12:50.289Z,1010.94
2016-05-06T04:13:33.275Z,1010.91
2016-05-06T04:14:16.244Z,1010.9
2016-05-06T04:14:59.231Z,1010.89
2016-05-06T04:15:41.906Z,1010.86
2016-05-06T04:16:24.893Z,1010.9
2016-05-06T04:17:07.768Z,1010.86
2016-05-06T04:17:50.755Z,1010.86
2016-05-06T04:18:33.585Z,1010.87
2016-05-06T04:19:16.257Z,1010.85
2016-05-06T04:19:58.933Z,1010.82
2016-05-06T04:20:41.607Z,1010.85
2016-05-06T04:21:24.594Z,1010.83
2016-05-06T04:22:07.563Z,1010.89
2016-05-06T04:22:50.409Z,1010.87
2016-05-06T04:23:33.396Z,1010.85
2016-05-06T04:24:16.365Z,1010.83
2016-05-06T04:24:59.196Z,1010.83
2016-05-06T04:25:42.167Z,1010.82
2016-05-06T04:26:25.342Z,1010.79
2016-05-06T04:27:08.201Z,1010.8
2016-05-06T04:27:51.173Z,1010.78
2016-05-06T04:28:34.144Z,1010.78
2016-05-06T04:29:16.973Z,1010.79
2016-05-06T04:29:59.646Z,1010.77
2016-05-06T04:30:42.446Z,1010.74
2016-05-06T04:31:25.277Z,1010.74
2016-05-06T04:32:08.246Z,1010.71
2016-05-06T04:32:51.062Z,1010.75
2016-05-06T04:33:33.704Z,1010.76
2016-05-06T04:34:16.689Z,1010.79
2016-05-06T04:34:59.348Z,1010.81
2016-05-06T04:35:42.320Z,1010.78
2016-05-06T04:36:25.134Z,1010.77
2016-05-06T04:37:07.947Z,1010.76
2016-05-06T04:37:50.918Z,1010.72
2016-05-06T04:38:33.905Z,1010.72
2016-05-06T04:39:16.702Z,1010.72
2016-05-06T04:39:59.517Z,1010.76
2016-05-06T04:40:42.489Z,1010.7
2016-05-06T04:41:25.695Z,1010.7
2016-05-06T04:42:08.492Z,1010.7
2016-05-06T04:42:51.150Z,1010.67
2016-05-06T04:43:33.981Z,1010.67
2016-05-06T04:44:16.966Z,1010.72
2016-05-06T04:44:59.953Z,1010.69
2016-05-06T04:45:42.924Z,1010.72
2016-05-06T04:46:25.911Z,1010.68
2016-05-06T04:47:08.724Z,1010.71
2016-05-06T04:47:51.695Z,1010.68
2016-05-06T04:48:34.683Z,1010.67
2016-05-06T04:49:17.667Z,1010.68
2016-05-06T04:50:00.622Z,1010.71
2016-05-06T04:50:43.438Z,1010.67
2016-05-06T04:51:26.409Z,1010.69
2016-05-06T04:52:09.237Z,1010.68
2016-05-06T04:52:52.052Z,1010.69
2016-05-06T04:53:34.868Z,1010.69
2016-05-06T04:54:17.852Z,1010.69
2016-05-06T04:55:00.527Z,1010.72
2016-05-06T04:55:44.091Z,1010.7
2016-05-06T04:56:27.829Z,1010.71
2016-05-06T04:57:10.798Z,1010.66
2016-05-06T04:57:53.613Z,1010.65
2016-05-06T04:58:36.615Z,1010.65
2016-05-06T04:59:19.584Z,1010.64
2016-05-06T05:00:02.587Z,1010.67
2016-05-06T05:00:45.401Z,1010.64
2016-05-06T05:01:28.374Z,1010.61
2016-05-06T05:02:11.343Z,1010.67
2016-05-06T05:02:54.329Z,1010.59
2016-05-06T05:03:37.159Z,1010.58
2016-05-06T05:04:20.175Z,1010.63
2016-05-06T05:05:03.007Z,1010.6
2016-05-06T05:05:45.993Z,1010.62
2016-05-06T05:06:29.012Z,1010.61
2016-05-06T05:07:12.028Z,1010.62
2016-05-06T05:07:55.014Z,1010.61
2016-05-06T05:08:37.987Z,1010.6
2016-05-06T05:09:20.971Z,1010.62
2016-05-06T05:10:03.786Z,1010.62
2016-05-06T05:10:46.624Z,1010.6
2016-05-06T05:11:29.673Z,1010.57
2016-05-06T05:12:12.626Z,1010.63
2016-05-06T05:12:55.520Z,1010.6
2016-05-06T05:13:38.398Z,1010.6
2016-05-06T05:14:21.351Z,1010.61
2016-05-06T05:15:04.370Z,1010.61
2016-05-06T05:15:47.374Z,1010.6
2016-05-06T05:16:30.378Z,1010.58
2016-05-06T05:17:13.347Z,1010.58
2016-05-06T05:17:56.320Z,1010.56
2016-05-06T05:18:39.323Z,1010.61
2016-05-06T05:19:22.308Z,1010.62
2016-05-06T05:20:05.296Z,1010.59
2016-05-06T05:20:48.139Z,1010.59
2016-05-06T05:21:31.132Z,1010.59
2016-05-06T05:22:14.148Z,1010.6
2016-05-06T05:22:57.000Z,1010.61
2016-05-06T05:23:39.837Z,1010.58
2016-05-06T05:24:22.649Z,1010.61
2016-05-06T05:25:05.487Z,1010.67
2016-05-06T05:25:48.306Z,1010.6
2016-05-06T05:26:31.296Z,1010.63
2016-05-06T05:27:14.249Z,1010.63
2016-05-06T05:27:57.238Z,1010.67
2016-05-06T05:28:40.072Z,1010.66
2016-05-06T05:29:22.884Z,1010.61
2016-05-06T05:30:05.716Z,1010.63
2016-05-06T05:30:48.533Z,1010.65
2016-05-06T05:31:31.365Z,1010.66
2016-05-06T05:32:14.334Z,1010.63
2016-05-06T05:32:57.321Z,1010.66
2016-05-06T05:33:40.294Z,1010.68
2016-05-06T05:34:23.138Z,1010.68
2016-05-06T05:35:05.969Z,1010.67
2016-05-06T05:35:48.941Z,1010.65
2016-05-06T05:36:31.912Z,1010.69
2016-05-06T05:37:14.881Z,1010.69
2016-05-06T05:37:57.869Z,1010.66
2016-05-06T05:38:40.841Z,1010.64
2016-05-06T05:39:23.357Z,1010.61
2016-05-06T05:40:06.172Z,1010.67
2016-05-06T05:40:49.206Z,1010.63
2016-05-06T05:41:32.741Z,1010.67
2016-05-06T05:42:15.413Z,1010.63
2016-05-06T05:42:58.071Z,1010.62
2016-05-06T05:43:41.074Z,1010.61
2016-05-06T05:44:23.902Z,1010.59
2016-05-06T05:45:06.874Z,1010.57
2016-05-06T05:45:49.860Z,1010.62
2016-05-06T05:46:32.894Z,1010.57
2016-05-06T05:47:15.707Z,1010.56
2016-05-06T05:47:58.679Z,1010.52
2016-05-06T05:48:41.369Z,1010.59
2016-05-06T05:49:24.353Z,1010.53
2016-05-06T05:50:07.168Z,1010.54
2016-05-06T05:50:50.171Z,1010.53
2016-05-06T05:51:32.970Z,1010.54
2016-05-06T05:52:15.798Z,1010.5
2016-05-06T05:52:58.785Z,1010.54
2016-05-06T05:53:41.616Z,1010.54
2016-05-06T05:54:24.445Z,1010.54
2016-05-06T05:55:07.416Z,1010.55
2016-05-06T05:55:50.450Z,1010.48
2016-05-06T05:56:33.562Z,1010.55
2016-05-06T05:57:16.546Z,1010.5
2016-05-06T05:57:59.518Z,1010.5
2016-05-06T05:58:42.270Z,1010.5
2016-05-06T05:59:25.254Z,1010.52
2016-05-06T06:00:08.070Z,1010.49
2016-05-06T06:00:51.495Z,1010.52
2016-05-06T06:01:34.466Z,1010.49
2016-05-06T06:02:17.137Z,1010.45
2016-05-06T06:03:00.125Z,1010.47
2016-05-06T06:03:43.112Z,1010.49
2016-05-06T06:04:25.909Z,1010.5
2016-05-06T06:05:08.895Z,1010.51
2016-05-06T06:05:51.727Z,1010.5
2016-05-06T06:06:34.526Z,1010.46
2016-05-06T06:07:17.339Z,1010.49
2016-05-06T06:08:00.014Z,1010.42
2016-05-06T06:08:43.047Z,1010.38
2016-05-06T06:09:25.860Z,1010.42
2016-05-06T06:10:08.847Z,1010.37
2016-05-06T06:10:51.880Z,1010.43
2016-05-06T06:11:36.289Z,1010.37
2016-05-06T06:12:19.274Z,1010.39
2016-05-06T06:13:02.246Z,1010.39
2016-05-06T06:13:44.905Z,1010.41
2016-05-06T06:14:27.736Z,1010.39
2016-05-06T06:15:10.423Z,1010.43
2016-05-06T06:15:53.394Z,1010.43
2016-05-06T06:16:36.381Z,1010.37
2016-05-06T06:17:19.349Z,1010.37
2016-05-06T06:18:02.181Z,1010.37
2016-05-06T06:18:45.183Z,1010.38
2016-05-06T06:19:27.999Z,1010.36
2016-05-06T06:20:10.827Z,1010.34
2016-05-06T06:20:53.814Z,1010.36
2016-05-06T06:21:36.629Z,1010.36
2016-05-06T06:22:19.613Z,1010.4
2016-05-06T06:23:02.601Z,1010.34
2016-05-06T06:23:45.603Z,1010.36
2016-05-06T06:24:28.404Z,1010.32
2016-05-06T06:25:11.247Z,1010.38
2016-05-06T06:25:54.062Z,1010.36
2016-05-06T06:26:37.315Z,1010.35
2016-05-06T06:27:20.143Z,1010.34
2016-05-06T06:28:02.957Z,1010.36
2016-05-06T06:28:45.632Z,1010.34
2016-05-06T06:29:28.447Z,1010.33
2016-05-06T06:30:11.416Z,1010.27
2016-05-06T06:30:54.388Z,1010.3
2016-05-06T06:31:37.203Z,1010.25
2016-05-06T06:32:20.031Z,1010.26
2016-05-06T06:33:03.002Z,1010.25
2016-05-06T06:33:45.974Z,1010.25
2016-05-06T06:34:28.805Z,1010.2
2016-05-06T06:35:11.773Z,1010.21
2016-05-06T06:35:54.603Z,1010.2
2016-05-06T06:36:37.404Z,1010.2
2016-05-06T06:37:20.232Z,1010.17
2016-05-06T06:38:02.750Z,1010.18
2016-05-06T06:38:45.566Z,1010.11
2016-05-06T06:39:28.553Z,1010.13
2016-05-06T06:40:11.522Z,1010.14
2016-05-06T06:40:55.164Z,1010.12
2016-05-06T06:41:37.886Z,1010.13
2016-05-06T06:42:20.542Z,1010.09
2016-05-06T06:43:03.529Z,1010.07
2016-05-06T06:43:46.532Z,1010.04
2016-05-06T06:44:29.207Z,1010.07
2016-05-06T06:45:12.238Z,1010.04
2016-05-06T06:45:55.194Z,1010.02
2016-05-06T06:46:38.228Z,1010.02
2016-05-06T06:47:21.072Z,1009.99
2016-05-06T06:48:04.027Z,1010.04
2016-05-06T06:48:47.014Z,1009.93
2016-05-06T06:49:29.688Z,1009.98
2016-05-06T06:50:12.657Z,1009.93
2016-05-06T06:50:55.644Z,1009.97
2016-05-06T06:51:38.632Z,1009.94
2016-05-06T06:52:21.288Z,1009.94
2016-05-06T06:53:04.275Z,1009.96
2016-05-06T06:53:47.262Z,1009.99
2016-05-06T06:54:30.249Z,1009.93
2016-05-06T06:55:13.280Z,1009.93
2016-05-06T06:55:56.267Z,1009.89
2016-05-06T06:56:38.817Z,1009.94
2016-05-06T06:57:21.723Z,1009.8
2016-05-06T06:58:04.757Z,1009.89
2016-05-06T06:58:47.650Z,1009.88
2016-05-06T06:59:30.654Z,1009.91
2016-05-06T07:00:13.623Z,1009.9
2016-05-06T07:00:56.609Z,1009.87
2016-05-06T07:01:39.596Z,1009.87
2016-05-06T07:02:22.409Z,1009.86
2016-05-06T07:03:05.271Z,1009.86
2016-05-06T07:03:48.258Z,1009.85
2016-05-06T07:04:31.088Z,1009.81
2016-05-06T07:05:13.822Z,1009.8
2016-05-06T07:05:56.888Z,1009.78
2016-05-06T07:06:39.719Z,1009.77
2016-05-06T07:07:22.516Z,1009.8
2016-05-06T07:08:05.190Z,1009.72
2016-05-06T07:08:48.177Z,1009.74
2016-05-06T07:09:31.009Z,1009.76
2016-05-06T07:10:13.665Z,1009.71
2016-05-06T07:10:56.667Z,1009.73
2016-05-06T07:11:40.732Z,1009.73
2016-05-06T07:12:23.575Z,1009.75
2016-05-06T07:13:06.532Z,1009.7
2016-05-06T07:13:49.363Z,1009.69
2016-05-06T07:14:32.193Z,1009.7
2016-05-06T07:15:15.162Z,1009.73
2016-05-06T07:15:58.024Z,1009.72
2016-05-06T07:16:40.855Z,1009.71
2016-05-06T07:17:23.824Z,1009.81
2016-05-06T07:18:06.655Z,1009.75
2016-05-06T07:18:49.642Z,1009.77
2016-05-06T07:19:32.457Z,1009.72
2016-05-06T07:20:15.269Z,1009.68
2016-05-06T07:20:58.241Z,1009.69
2016-05-06T07:21:41.056Z,1009.71
2016-05-06T07:22:23.868Z,1009.68
2016-05-06T07:23:06.845Z,1009.68
2016-05-06T07:23:49.863Z,1009.69
2016-05-06T07:24:32.834Z,1009.61
2016-05-06T07:25:15.803Z,1009.61
2016-05-06T07:25:58.790Z,1009.61
2016-05-06T07:26:42.590Z,1009.56
2016-05-06T07:27:25.137Z,1009.6
2016-05-06T07:28:08.124Z,1009.61
2016-05-06T07:28:51.095Z,1009.59
2016-05-06T07:29:34.067Z,1009.61
2016-05-06T07:30:17.036Z,1009.57
2016-05-06T07:30:59.710Z,1009.6
2016-05-06T07:31:42.557Z,1009.56
2016-05-06T07:32:25.542Z,1009.53
2016-05-06T07:33:08.373Z,1009.58
2016-05-06T07:33:51.359Z,1009.61
2016-05-06T07:34:34.189Z,1009.56
2016-05-06T07:35:16.830Z,1009.56
2016-05-06T07:35:59.833Z,1009.55
2016-05-06T07:36:42.664Z,1009.57
2016-05-06T07:37:25.492Z,1009.58
2016-05-06T07:38:08.182Z,1009.52
2016-05-06T07:38:50.997Z,1009.53
2016-05-06T07:39:33.969Z,1009.51
2016-05-06T07:40:16.813Z,1009.57
2016-05-06T07:40:59.628Z,1009.46
2016-05-06T07:41:42.708Z,1009.45
2016-05-06T07:42:26.177Z,1009.42
2016-05-06T07:43:09.008Z,1009.41
2016-05-06T07:43:51.824Z,1009.45
2016-05-06T07:44:34.638Z,1009.42
2016-05-06T07:45:17.607Z,1009.42
2016-05-06T07:46:00.579Z,1009.45
2016-05-06T07:46:43.394Z,1009.38
2016-05-06T07:47:26.066Z,1009.39
2016-05-06T07:48:09.021Z,1009.42
2016-05-06T07:48:51.838Z,1009.38
2016-05-06T07:49:34.652Z,1009.44
2016-05-06T07:50:17.480Z,1009.34
2016-05-06T07:51:00.170Z,1009.39
2016-05-06T07:51:43.157Z,1009.36
2016-05-06T07:52:26.141Z,1009.32
2016-05-06T07:53:08.973Z,1009.33
2016-05-06T07:53:51.975Z,1009.32
2016-05-06T07:54:34.962Z,1009.33
2016-05-06T07:55:18.259Z,1009.33
2016-05-06T07:56:01.262Z,1009.33
2016-05-06T07:56:44.265Z,1009.29
2016-05-06T07:57:27.171Z,1009.24
2016-05-06T07:58:10.001Z,1009.22
2016-05-06T07:58:52.990Z,1009.27
2016-05-06T07:59:35.960Z,1009.28
2016-05-06T08:00:18.632Z,1009.34
2016-05-06T08:01:01.619Z,1009.26
2016-05-06T08:01:44.434Z,1009.26
2016-05-06T08:02:27.309Z,1009.22
2016-05-06T08:03:10.125Z,1009.22
2016-05-06T08:03:53.095Z,1009.2
2016-05-06T08:04:36.083Z,1009.2
2016-05-06T08:05:18.583Z,1009.16
2016-05-06T08:06:01.414Z,1009.16
2016-05-06T08:06:44.229Z,1009.19
2016-05-06T08:07:27.057Z,1009.16
2016-05-06T08:08:09.872Z,1009.22
2016-05-06T08:08:52.859Z,1009.14
2016-05-06T08:09:35.675Z,1009.17
2016-05-06T08:10:18.472Z,1009.13
2016-05-06T08:11:01.302Z,1009.15
2016-05-06T08:11:44.336Z,1009.14
2016-05-06T08:12:27.164Z,1009.15
2016-05-06T08:13:10.151Z,1009.16
2016-05-06T08:13:53.170Z,1009.15
2016-05-06T08:14:36.000Z,1009.11
2016-05-06T08:15:18.985Z,1009.16
2016-05-06T08:16:01.972Z,1009.11
2016-05-06T08:16:44.787Z,1009.13
2016-05-06T08:17:27.599Z,1009.06
2016-05-06T08:18:10.430Z,1009.17
2016-05-06T08:18:53.418Z,1009.18
2016-05-06T08:19:36.091Z,1009.08
2016-05-06T08:20:19.076Z,1009.18
2016-05-06T08:21:02.048Z,1009.08
2016-05-06T08:21:45.035Z,1009.18
2016-05-06T08:22:27.847Z,1009.2
2016-05-06T08:23:10.679Z,1009.16
2016-05-06T08:23:53.649Z,1009.17
2016-05-06T08:24:36.637Z,1009.19
2016-05-06T08:25:19.605Z,1009.23
2016-05-06T08:26:02.437Z,1009.25
2016-05-06T08:26:45.329Z,1009.26
2016-05-06T08:27:28.157Z,1009.31
2016-05-06T08:28:11.129Z,1009.31
2016-05-06T08:28:54.116Z,1009.37
2016-05-06T08:29:37.103Z,1009.45
2016-05-06T08:30:20.103Z,1009.47
2016-05-06T08:31:03.090Z,1009.45
2016-05-06T08:31:45.749Z,1009.55
2016-05-06T08:32:28.718Z,1009.55
2016-05-06T08:33:11.549Z,1009.5
2016-05-06T08:33:54.379Z,1009.54
2016-05-06T08:34:37.351Z,1009.53
2016-05-06T08:35:20.320Z,1009.43
2016-05-06T08:36:03.323Z,1009.59
2016-05-06T08:36:46.278Z,1009.59
2016-05-06T08:37:29.262Z,1009.62
2016-05-06T08:38:12.250Z,1009.52
2016-05-06T08:38:55.236Z,1009.58
2016-05-06T08:39:38.037Z,1009.6
2016-05-06T08:40:20.881Z,1009.55